createdAt,value
2018-08-11T00:05:09.801Z,14.6
2018-08-11T00:10:38.864Z,14.6
2018-08-11T00:16:07.788Z,14.7
2018-08-11T00:21:37.004Z,14.7
2018-08-11T00:27:06.452Z,14.8
2018-08-11T00:32:35.478Z,14.9
2018-08-11T00:38:05.950Z,15
2018-08-11T00:43:34.833Z,15.1
2018-08-11T00:49:10.123Z,15.1
2018-08-11T00:54:35.652Z,15.2
2018-08-11T01:00:09.624Z,15.2
2018-08-11T01:05:34.797Z,15.3
2018-08-11T01:11:04.309Z,15.3
2018-08-11T01:16:33.530Z,15.3
2018-08-11T01:22:02.561Z,15.3
2018-08-11T01:27:37.969Z,15.2
2018-08-11T01:33:02.309Z,15.2
2018-08-11T01:38:31.221Z,15.2
2018-08-11T01:44:00.517Z,15.2
2018-08-11T01:49:29.649Z,15.1
2018-08-11T01:54:59.913Z,15.1
2018-08-11T02:00:30.322Z,15.1
2018-08-11T02:06:04.373Z,15.1
2018-08-11T02:11:28.511Z,15.1
2018-08-11T02:16:59.005Z,15
2018-08-11T02:16:59.297Z,15
2018-08-11T02:22:29.193Z,15
2018-08-11T02:22:30.108Z,15
2018-08-11T02:27:59.126Z,14.9
2018-08-11T02:33:33.435Z,14.9
2018-08-11T02:39:02.532Z,14.9
2018-08-11T02:44:27.734Z,14.9
2018-08-11T02:49:57.006Z,14.9
2018-08-11T02:55:27.457Z,14.9
2018-08-11T03:01:01.431Z,14.8
2018-08-11T03:06:30.520Z,14.8
2018-08-11T03:11:55.723Z,14.8
2018-08-11T03:17:24.880Z,14.7
2018-08-11T03:22:55.079Z,14.7
2018-08-11T03:28:25.516Z,14.7
2018-08-11T03:33:55.630Z,14.6
2018-08-11T03:39:25.833Z,14.6
2018-08-11T03:44:54.728Z,14.5
2018-08-11T03:50:24.105Z,14.4
2018-08-11T03:55:59.310Z,14.3
2018-08-11T04:01:23.134Z,14.2
2018-08-11T04:06:53.275Z,14.3
2018-08-11T04:12:22.402Z,14.4
2018-08-11T04:17:57.767Z,14.5
2018-08-11T04:23:22.647Z,14.5
2018-08-11T04:28:56.750Z,14.5
2018-08-11T04:34:26.499Z,14.5
2018-08-11T04:39:51.004Z,14.5
2018-08-11T04:45:20.494Z,14.6
2018-08-11T04:50:55.265Z,14.6
2018-08-11T04:56:20.672Z,14.6
2018-08-11T05:01:50.592Z,14.6
2018-08-11T05:07:25.151Z,14.6
2018-08-11T05:12:49.761Z,14.6
2018-08-11T05:18:19.172Z,14.6
2018-08-11T05:23:48.047Z,14.6
2018-08-11T05:29:17.592Z,14.7
2018-08-11T05:34:46.658Z,14.7
2018-08-11T05:40:15.510Z,14.7
2018-08-11T05:45:44.600Z,14.8
2018-08-11T05:51:15.196Z,14.9
2018-08-11T05:56:43.955Z,15
2018-08-11T06:02:14.116Z,15
2018-08-11T06:07:43.315Z,15
2018-08-11T06:13:12.480Z,15
2018-08-11T06:18:41.648Z,15
2018-08-11T06:24:11.972Z,15.1
2018-08-11T06:29:42.046Z,15.2
2018-08-11T06:35:12.481Z,15.3
2018-08-11T06:40:44.105Z,15.3
2018-08-11T06:46:16.649Z,15.5
2018-08-11T06:51:41.168Z,15.6
2018-08-11T06:57:11.148Z,15.8
2018-08-11T07:02:41.677Z,15.8
2018-08-11T07:08:10.717Z,15.9
2018-08-11T07:13:40.953Z,15.9
2018-08-11T07:19:16.279Z,16
2018-08-11T07:24:40.773Z,16.1
2018-08-11T07:30:11.148Z,16.3
2018-08-11T07:35:41.147Z,16.4
2018-08-11T07:41:10.489Z,16.5
2018-08-11T07:46:45.913Z,16.5
2018-08-11T07:52:10.228Z,16.6
2018-08-11T07:57:40.741Z,16.6
2018-08-11T08:03:10.045Z,16.4
2018-08-11T08:03:10.288Z,16.4
2018-08-11T08:08:39.193Z,16.2
2018-08-11T08:14:08.363Z,16
2018-08-11T08:19:38.610Z,15.9
2018-08-11T08:25:09.191Z,15.9
2018-08-11T08:30:38.435Z,15.9
2018-08-11T08:36:08.636Z,15.9
2018-08-11T08:41:38.618Z,15.9
2018-08-11T08:47:08.242Z,16
2018-08-11T08:52:42.196Z,16
2018-08-11T08:58:07.648Z,15.8
2018-08-11T09:03:42.889Z,15.5
2018-08-11T09:09:08.028Z,15.4
2018-08-11T09:14:43.025Z,15.4
2018-08-11T09:20:07.283Z,15.6
2018-08-11T09:25:36.713Z,15.9
2018-08-11T09:31:05.774Z,16.3
2018-08-11T09:36:36.134Z,16.7
2018-08-11T09:42:11.464Z,16.9
2018-08-11T09:47:35.800Z,16.6
2018-08-11T09:53:05.433Z,16.2
2018-08-11T09:58:35.392Z,15.9
2018-08-11T10:04:11.090Z,15.8
2018-08-11T10:09:34.819Z,15.8
2018-08-11T10:15:10.092Z,16
2018-08-11T10:20:34.309Z,16.2
2018-08-11T10:26:03.817Z,16.6
2018-08-11T10:31:34.609Z,17
2018-08-11T10:37:03.442Z,17
2018-08-11T10:42:38.853Z,16.7
2018-08-11T10:48:03.093Z,16.4
2018-08-11T10:53:32.391Z,16.2
2018-08-11T10:59:02.716Z,16.2
2018-08-11T11:04:36.921Z,16.1
2018-08-11T11:10:06.340Z,15.7
2018-08-11T11:15:31.551Z,15.3
2018-08-11T11:21:06.619Z,15.2
2018-08-11T11:26:31.604Z,15.2
2018-08-11T11:32:06.242Z,15.3
2018-08-11T11:37:29.935Z,15.4
2018-08-11T11:43:00.194Z,15.8
2018-08-11T11:48:35.721Z,16.1
2018-08-11T11:54:24.947Z,16.5
2018-08-11T11:59:31.065Z,16.7
2018-08-11T12:05:00.408Z,16.7
2018-08-11T12:10:29.759Z,16.7
2018-08-11T12:15:59.093Z,16.5
2018-08-11T12:21:28.440Z,16.1
2018-08-11T12:26:57.855Z,15.7
2018-08-11T12:32:27.742Z,15.4
2018-08-11T12:37:57.433Z,15.3
2018-08-11T12:43:26.090Z,15.3
2018-08-11T12:49:01.417Z,15.5
2018-08-11T12:54:36.162Z,15.7
2018-08-11T13:00:00.781Z,16
2018-08-11T13:00:21.621Z,16
2018-08-11T13:05:26.346Z,16.3
2018-08-11T13:10:56.686Z,16.4
2018-08-11T13:16:26.969Z,16.6
2018-08-11T13:21:57.154Z,16.8
2018-08-11T13:27:31.702Z,16.8
2018-08-11T13:32:55.704Z,16.6
2018-08-11T13:38:30.317Z,16.4
2018-08-11T13:44:00.397Z,16.2
2018-08-11T13:49:25.963Z,16
2018-08-11T13:54:54.829Z,16
2018-08-11T14:00:24.086Z,16.4
2018-08-11T14:05:53.765Z,16.7
2018-08-11T14:11:23.777Z,16.5
2018-08-11T14:16:54.362Z,16.3
2018-08-11T14:22:29.313Z,16.1
2018-08-11T14:27:53.888Z,16.1
2018-08-11T14:28:29.706Z,16.1
2018-08-11T14:33:23.825Z,16.3
2018-08-11T14:34:31.843Z,16.3
2018-08-11T14:38:58.270Z,16.5
2018-08-11T14:44:23.120Z,16.7
2018-08-11T14:49:51.852Z,16.8
2018-08-11T14:55:27.847Z,17
2018-08-11T15:00:52.647Z,17.3
2018-08-11T15:06:23.076Z,17.5
2018-08-11T15:11:57.802Z,17.6
2018-08-11T15:17:23.227Z,17.6
2018-08-11T15:22:52.663Z,17.7
2018-08-11T15:28:23.155Z,17.6
2018-08-11T15:33:52.292Z,17.5
2018-08-11T15:39:21.649Z,17.4
2018-08-11T15:39:22.497Z,17.4
2018-08-11T15:44:52.362Z,17.3
2018-08-11T15:50:21.487Z,17.3
2018-08-11T15:55:51.976Z,17.5
2018-08-11T16:01:26.381Z,17.6
2018-08-11T16:06:50.811Z,17.7
2018-08-11T16:12:20.697Z,17.6
2018-08-11T16:17:49.637Z,17.4
2018-08-11T16:23:20.137Z,17.2
2018-08-11T16:28:50.479Z,17.2
2018-08-11T16:34:20.381Z,17.3
2018-08-11T16:34:24.856Z,17.3
2018-08-11T16:39:49.321Z,17.4
2018-08-11T16:45:38.898Z,17.5
2018-08-11T16:50:49.388Z,17.5
2018-08-11T16:56:18.768Z,17.4
2018-08-11T17:01:48.898Z,17.3
2018-08-11T17:07:19.286Z,17.2
2018-08-11T17:12:48.642Z,17.1
2018-08-11T17:18:18.019Z,17
2018-08-11T17:23:48.391Z,16.9
2018-08-11T17:29:17.798Z,16.8
2018-08-11T17:34:47.093Z,16.7
2018-08-11T17:40:22.470Z,16.7
2018-08-11T17:45:47.726Z,16.6
2018-08-11T17:51:17.020Z,16.6
2018-08-11T17:56:52.646Z,16.5
2018-08-11T18:02:44.540Z,16.5
2018-08-11T18:07:46.940Z,16.4
2018-08-11T18:13:21.259Z,16.4
2018-08-11T18:18:51.623Z,16.3
2018-08-11T18:24:16.807Z,16.3
2018-08-11T18:35:15.445Z,16.1
2018-08-11T18:40:45.627Z,16.1
2018-08-11T18:46:14.950Z,16
2018-08-11T18:51:50.630Z,16
2018-08-11T18:57:46.579Z,15.9
2018-08-11T19:02:44.767Z,15.8
2018-08-11T19:08:14.092Z,15.8
2018-08-11T19:13:44.032Z,15.7
2018-08-11T19:19:14.290Z,15.7
2018-08-11T19:24:43.445Z,15.6
2018-08-11T19:30:17.658Z,15.6
2018-08-11T19:35:48.009Z,15.5
2018-08-11T19:41:13.448Z,15.5
2018-08-11T19:46:43.463Z,15.4
2018-08-11T19:52:13.584Z,15.4
2018-08-11T19:57:42.579Z,15.3
2018-08-11T20:03:17.261Z,15.3
2018-08-11T20:08:42.367Z,15.3
2018-08-11T20:14:17.100Z,15.3
2018-08-11T20:19:47.528Z,15.2
2018-08-11T20:25:12.446Z,15.1
2018-08-11T20:30:42.823Z,15.1
2018-08-11T20:36:12.690Z,15
2018-08-11T20:41:47.263Z,14.9
2018-08-11T20:47:12.008Z,14.8
2018-08-11T20:52:42.409Z,14.7
2018-08-11T20:58:16.587Z,14.6
2018-08-11T21:03:45.282Z,14.6
2018-08-11T21:09:15.365Z,14.5
2018-08-11T21:14:40.437Z,14.4
2018-08-11T21:20:14.531Z,14.3
2018-08-11T21:25:39.573Z,14.2
2018-08-11T21:31:08.605Z,14.2
2018-08-11T21:36:38.922Z,14.1
2018-08-11T21:42:07.694Z,14
2018-08-11T21:47:37.943Z,13.9
2018-08-11T21:53:13.244Z,13.8
2018-08-11T21:58:36.725Z,13.8
2018-08-11T22:04:07.007Z,13.7
2018-08-11T22:09:36.045Z,13.6
2018-08-11T22:15:05.764Z,13.6
2018-08-11T22:20:39.741Z,13.5
2018-08-11T22:26:04.017Z,13.5
2018-08-11T22:31:32.684Z,13.4
2018-08-11T22:37:02.608Z,13.4
2018-08-11T22:42:37.688Z,13.3
2018-08-11T22:48:01.697Z,13.2
2018-08-11T22:53:31.799Z,13.2
2018-08-11T22:59:00.482Z,13.1
2018-08-11T23:04:35.361Z,13.1
2018-08-11T23:10:00.265Z,13
2018-08-11T23:15:30.221Z,13
2018-08-11T23:21:00.415Z,12.9
2018-08-11T23:26:29.018Z,12.9
2018-08-11T23:32:04.454Z,12.9
2018-08-11T23:37:33.424Z,12.8
2018-08-11T23:42:57.067Z,12.8
2018-08-11T23:48:26.628Z,12.8
2018-08-11T23:54:01.615Z,12.7
2018-08-11T23:59:26.680Z,12.7
